sensor_id;sensor_type;location;lat;lon;timestamp;P1;durP1;ratioP1;P2;durP2;ratioP2
25870;SDS011;13689;48.590;7.752;2022-09-09T00:02:19;4.68;;;0.52;;
25870;SDS011;13689;48.590;7.752;2022-09-09T00:04:51;4.75;;;0.50;;
25870;SDS011;13689;48.590;7.752;2022-09-09T00:21:37;8.38;;;0.63;;
25870;SDS011;13689;48.590;7.752;2022-09-09T00:24:23;2.03;;;0.50;;
25870;SDS011;13689;48.590;7.752;2022-09-09T00:26:52;2.28;;;0.52;;
25870;SDS011;13689;48.590;7.752;2022-09-09T00:29:33;0.50;;;0.40;;
25870;SDS011;13689;48.590;7.752;2022-09-09T00:32:13;4.32;;;0.85;;
25870;SDS011;13689;48.590;7.752;2022-09-09T00:34:49;2.80;;;0.40;;
25870;SDS011;13689;48.590;7.752;2022-09-09T00:37:24;2.78;;;0.52;;
25870;SDS011;13689;48.590;7.752;2022-09-09T00:42:26;2.15;;;0.40;;
25870;SDS011;13689;48.590;7.752;2022-09-09T00:45:17;1.10;;;0.30;;
25870;SDS011;13689;48.590;7.752;2022-09-09T00:48:07;0.30;;;0.30;;
25870;SDS011;13689;48.590;7.752;2022-09-09T00:56:21;1.75;;;0.30;;
25870;SDS011;13689;48.590;7.752;2022-09-09T00:59:00;2.20;;;0.40;;
25870;SDS011;13689;48.590;7.752;2022-09-09T01:01:46;0.73;;;0.30;;
25870;SDS011;13689;48.590;7.752;2022-09-09T01:04:16;6.65;;;0.55;;
25870;SDS011;13689;48.590;7.752;2022-09-09T01:06:50;2.03;;;0.40;;
25870;SDS011;13689;48.590;7.752;2022-09-09T01:22:50;0.98;;;0.20;;
25870;SDS011;13689;48.590;7.752;2022-09-09T01:28:09;2.35;;;0.35;;
25870;SDS011;13689;48.590;7.752;2022-09-09T01:30:38;0.73;;;0.35;;
25870;SDS011;13689;48.590;7.752;2022-09-09T01:33:07;0.98;;;0.28;;
25870;SDS011;13689;48.590;7.752;2022-09-09T01:38:23;1.23;;;0.60;;
25870;SDS011;13689;48.590;7.752;2022-09-09T01:40:50;1.90;;;0.40;;
25870;SDS011;13689;48.590;7.752;2022-09-09T01:43:22;2.00;;;0.40;;
25870;SDS011;13689;48.590;7.752;2022-09-09T01:45:51;2.03;;;0.20;;
25870;SDS011;13689;48.590;7.752;2022-09-09T01:48:19;2.65;;;0.40;;
25870;SDS011;13689;48.590;7.752;2022-09-09T01:50:47;1.67;;;0.32;;
25870;SDS011;13689;48.590;7.752;2022-09-09T01:53:13;2.47;;;0.30;;
25870;SDS011;13689;48.590;7.752;2022-09-09T02:01:46;1.10;;;0.30;;
25870;SDS011;13689;48.590;7.752;2022-09-09T02:04:42;1.35;;;0.50;;
25870;SDS011;13689;48.590;7.752;2022-09-09T02:09:44;3.03;;;0.40;;
25870;SDS011;13689;48.590;7.752;2022-09-09T02:12:17;2.03;;;0.45;;
25870;SDS011;13689;48.590;7.752;2022-09-09T02:14:48;2.33;;;0.40;;
25870;SDS011;13689;48.590;7.752;2022-09-09T02:17:22;1.77;;;0.47;;
25870;SDS011;13689;48.590;7.752;2022-09-09T02:19:58;4.22;;;0.30;;
25870;SDS011;13689;48.590;7.752;2022-09-09T02:22:28;1.48;;;0.40;;
25870;SDS011;13689;48.590;7.752;2022-09-09T02:24:56;1.30;;;0.40;;
25870;SDS011;13689;48.590;7.752;2022-09-09T02:27:24;1.10;;;0.30;;
25870;SDS011;13689;48.590;7.752;2022-09-09T02:29:51;0.68;;;0.38;;
25870;SDS011;13689;48.590;7.752;2022-09-09T02:32:19;2.53;;;0.60;;
25870;SDS011;13689;48.590;7.752;2022-09-09T02:34:49;1.05;;;0.30;;
25870;SDS011;13689;48.590;7.752;2022-09-09T02:37:19;1.02;;;0.28;;
25870;SDS011;13689;48.590;7.752;2022-09-09T02:39:48;3.40;;;0.50;;
25870;SDS011;13689;48.590;7.752;2022-09-09T02:42:14;1.20;;;0.28;;
25870;SDS011;13689;48.590;7.752;2022-09-09T02:44:39;2.30;;;0.20;;
25870;SDS011;13689;48.590;7.752;2022-09-09T02:55:40;0.45;;;0.30;;
25870;SDS011;13689;48.590;7.752;2022-09-09T02:58:11;1.45;;;0.57;;
25870;SDS011;13689;48.590;7.752;2022-09-09T03:00:41;2.67;;;0.20;;
25870;SDS011;13689;48.590;7.752;2022-09-09T03:03:10;0.85;;;0.20;;
25870;SDS011;13689;48.590;7.752;2022-09-09T03:05:36;2.70;;;0.20;;
25870;SDS011;13689;48.590;7.752;2022-09-09T03:08:02;1.67;;;0.30;;
25870;SDS011;13689;48.590;7.752;2022-09-09T03:10:29;0.20;;;0.20;;
25870;SDS011;13689;48.590;7.752;2022-09-09T03:12:54;0.43;;;0.20;;
25870;SDS011;13689;48.590;7.752;2022-09-09T03:15:20;2.30;;;0.20;;
25870;SDS011;13689;48.590;7.752;2022-09-09T03:17:46;2.95;;;0.30;;
25870;SDS011;13689;48.590;7.752;2022-09-09T03:20:12;2.17;;;0.22;;
25870;SDS011;13689;48.590;7.752;2022-09-09T03:22:38;1.98;;;0.30;;
25870;SDS011;13689;48.590;7.752;2022-09-09T03:25:04;1.55;;;0.40;;
25870;SDS011;13689;48.590;7.752;2022-09-09T03:27:30;3.08;;;0.35;;
25870;SDS011;13689;48.590;7.752;2022-09-09T03:29:56;1.17;;;0.20;;
25870;SDS011;13689;48.590;7.752;2022-09-09T03:32:22;0.90;;;0.10;;
25870;SDS011;13689;48.590;7.752;2022-09-09T03:34:50;1.23;;;0.30;;
25870;SDS011;13689;48.590;7.752;2022-09-09T03:37:17;0.77;;;0.20;;
25870;SDS011;13689;48.590;7.752;2022-09-09T03:39:43;4.35;;;0.40;;
25870;SDS011;13689;48.590;7.752;2022-09-09T03:42:11;4.60;;;0.20;;
25870;SDS011;13689;48.590;7.752;2022-09-09T03:44:39;1.52;;;0.30;;
25870;SDS011;13689;48.590;7.752;2022-09-09T03:47:07;1.10;;;0.32;;
25870;SDS011;13689;48.590;7.752;2022-09-09T03:49:33;1.52;;;0.20;;
25870;SDS011;13689;48.590;7.752;2022-09-09T03:51:58;0.80;;;0.15;;
25870;SDS011;13689;48.590;7.752;2022-09-09T03:54:26;1.00;;;0.43;;
25870;SDS011;13689;48.590;7.752;2022-09-09T03:56:52;1.23;;;0.30;;
25870;SDS011;13689;48.590;7.752;2022-09-09T03:59:17;0.88;;;0.20;;
25870;SDS011;13689;48.590;7.752;2022-09-09T04:01:43;2.53;;;0.90;;
25870;SDS011;13689;48.590;7.752;2022-09-09T04:04:10;2.08;;;0.32;;
25870;SDS011;13689;48.590;7.752;2022-09-09T04:06:37;1.75;;;0.30;;
25870;SDS011;13689;48.590;7.752;2022-09-09T04:09:02;0.98;;;0.30;;
25870;SDS011;13689;48.590;7.752;2022-09-09T04:11:28;1.38;;;0.30;;
25870;SDS011;13689;48.590;7.752;2022-09-09T04:13:54;1.17;;;0.20;;
25870;SDS011;13689;48.590;7.752;2022-09-09T04:16:20;2.08;;;0.30;;
25870;SDS011;13689;48.590;7.752;2022-09-09T04:18:46;2.85;;;0.40;;
25870;SDS011;13689;48.590;7.752;2022-09-09T04:21:11;5.38;;;0.30;;
25870;SDS011;13689;48.590;7.752;2022-09-09T04:23:37;0.73;;;0.47;;
25870;SDS011;13689;48.590;7.752;2022-09-09T04:26:04;2.33;;;0.35;;
25870;SDS011;13689;48.590;7.752;2022-09-09T04:28:32;1.17;;;0.40;;
25870;SDS011;13689;48.590;7.752;2022-09-09T04:31:06;4.20;;;0.40;;
25870;SDS011;13689;48.590;7.752;2022-09-09T04:33:34;2.58;;;0.30;;
25870;SDS011;13689;48.590;7.752;2022-09-09T04:36:00;1.30;;;0.40;;
25870;SDS011;13689;48.590;7.752;2022-09-09T04:38:26;5.18;;;0.63;;
25870;SDS011;13689;48.590;7.752;2022-09-09T04:40:52;2.03;;;1.17;;
25870;SDS011;13689;48.590;7.752;2022-09-09T04:43:18;1.98;;;0.52;;
25870;SDS011;13689;48.590;7.752;2022-09-09T04:45:49;2.27;;;0.57;;
25870;SDS011;13689;48.590;7.752;2022-09-09T04:48:18;2.42;;;0.47;;
25870;SDS011;13689;48.590;7.752;2022-09-09T04:51:13;2.07;;;0.50;;
25870;SDS011;13689;48.590;7.752;2022-09-09T04:53:34;1.70;;;0.50;;
25870;SDS011;13689;48.590;7.752;2022-09-09T04:56:04;1.88;;;0.60;;
25870;SDS011;13689;48.590;7.752;2022-09-09T04:58:31;5.78;;;1.00;;
25870;SDS011;13689;48.590;7.752;2022-09-09T05:01:30;1.35;;;0.57;;
25870;SDS011;13689;48.590;7.752;2022-09-09T05:03:49;3.67;;;0.60;;
25870;SDS011;13689;48.590;7.752;2022-09-09T05:06:17;2.75;;;0.70;;
25870;SDS011;13689;48.590;7.752;2022-09-09T05:08:44;2.10;;;0.70;;
25870;SDS011;13689;48.590;7.752;2022-09-09T05:11:14;6.45;;;0.80;;
25870;SDS011;13689;48.590;7.752;2022-09-09T05:13:41;1.65;;;0.73;;
25870;SDS011;13689;48.590;7.752;2022-09-09T05:16:07;3.17;;;0.63;;
25870;SDS011;13689;48.590;7.752;2022-09-09T05:18:35;5.88;;;1.15;;
25870;SDS011;13689;48.590;7.752;2022-09-09T05:21:04;3.35;;;0.95;;
25870;SDS011;13689;48.590;7.752;2022-09-09T05:23:31;3.45;;;0.85;;
25870;SDS011;13689;48.590;7.752;2022-09-09T05:25:58;1.80;;;0.80;;
25870;SDS011;13689;48.590;7.752;2022-09-09T05:28:25;4.10;;;1.20;;
25870;SDS011;13689;48.590;7.752;2022-09-09T05:30:55;0.70;;;0.70;;
25870;SDS011;13689;48.590;7.752;2022-09-09T05:33:26;2.88;;;0.90;;
25870;SDS011;13689;48.590;7.752;2022-09-09T05:36:01;3.15;;;0.73;;
25870;SDS011;13689;48.590;7.752;2022-09-09T05:38:32;5.28;;;0.90;;
25870;SDS011;13689;48.590;7.752;2022-09-09T05:40:58;4.25;;;0.95;;
25870;SDS011;13689;48.590;7.752;2022-09-09T05:43:25;3.45;;;0.80;;
25870;SDS011;13689;48.590;7.752;2022-09-09T05:45:59;3.47;;;1.00;;
25870;SDS011;13689;48.590;7.752;2022-09-09T05:48:32;4.57;;;1.00;;
25870;SDS011;13689;48.590;7.752;2022-09-09T05:51:00;5.55;;;1.10;;
25870;SDS011;13689;48.590;7.752;2022-09-09T05:53:27;11.27;;;1.30;;
25870;SDS011;13689;48.590;7.752;2022-09-09T05:56:00;2.78;;;0.98;;
25870;SDS011;13689;48.590;7.752;2022-09-09T05:58:31;4.55;;;0.95;;
25870;SDS011;13689;48.590;7.752;2022-09-09T06:01:01;5.70;;;1.25;;
25870;SDS011;13689;48.590;7.752;2022-09-09T06:03:30;3.13;;;1.33;;
25870;SDS011;13689;48.590;7.752;2022-09-09T06:06:00;3.33;;;1.08;;
25870;SDS011;13689;48.590;7.752;2022-09-09T06:08:27;5.57;;;1.25;;
25870;SDS011;13689;48.590;7.752;2022-09-09T06:10:53;2.95;;;0.77;;
25870;SDS011;13689;48.590;7.752;2022-09-09T06:13:27;1.60;;;0.80;;
25870;SDS011;13689;48.590;7.752;2022-09-09T06:15:53;4.47;;;1.08;;
25870;SDS011;13689;48.590;7.752;2022-09-09T06:18:18;3.33;;;0.75;;
25870;SDS011;13689;48.590;7.752;2022-09-09T06:20:54;3.42;;;1.45;;
25870;SDS011;13689;48.590;7.752;2022-09-09T06:23:21;2.63;;;0.80;;
25870;SDS011;13689;48.590;7.752;2022-09-09T06:25:47;4.43;;;1.63;;
25870;SDS011;13689;48.590;7.752;2022-09-09T06:28:14;4.00;;;1.17;;
25870;SDS011;13689;48.590;7.752;2022-09-09T06:30:42;4.95;;;1.02;;
25870;SDS011;13689;48.590;7.752;2022-09-09T06:33:07;2.33;;;0.70;;
25870;SDS011;13689;48.590;7.752;2022-09-09T06:35:34;10.73;;;1.00;;
25870;SDS011;13689;48.590;7.752;2022-09-09T06:37:59;1.13;;;0.80;;
25870;SDS011;13689;48.590;7.752;2022-09-09T06:40:25;3.13;;;0.95;;
25870;SDS011;13689;48.590;7.752;2022-09-09T06:42:51;2.72;;;0.80;;
25870;SDS011;13689;48.590;7.752;2022-09-09T06:45:16;4.13;;;1.10;;
25870;SDS011;13689;48.590;7.752;2022-09-09T06:47:42;4.40;;;1.05;;
25870;SDS011;13689;48.590;7.752;2022-09-09T06:50:08;2.97;;;0.88;;
25870;SDS011;13689;48.590;7.752;2022-09-09T06:52:35;2.03;;;1.07;;
25870;SDS011;13689;48.590;7.752;2022-09-09T06:55:02;2.55;;;0.77;;
25870;SDS011;13689;48.590;7.752;2022-09-09T06:57:28;3.55;;;0.80;;
25870;SDS011;13689;48.590;7.752;2022-09-09T06:59:53;1.15;;;0.60;;
25870;SDS011;13689;48.590;7.752;2022-09-09T07:02:19;3.60;;;0.95;;
25870;SDS011;13689;48.590;7.752;2022-09-09T07:04:45;3.72;;;1.00;;
25870;SDS011;13689;48.590;7.752;2022-09-09T07:07:10;3.20;;;0.70;;
25870;SDS011;13689;48.590;7.752;2022-09-09T07:09:38;2.45;;;1.05;;
25870;SDS011;13689;48.590;7.752;2022-09-09T07:12:05;7.15;;;0.82;;
25870;SDS011;13689;48.590;7.752;2022-09-09T07:14:31;2.70;;;0.95;;
25870;SDS011;13689;48.590;7.752;2022-09-09T07:16:58;2.22;;;1.05;;
25870;SDS011;13689;48.590;7.752;2022-09-09T07:19:25;4.97;;;0.98;;
25870;SDS011;13689;48.590;7.752;2022-09-09T07:21:50;1.92;;;0.95;;
25870;SDS011;13689;48.590;7.752;2022-09-09T07:24:16;2.47;;;1.00;;
25870;SDS011;13689;48.590;7.752;2022-09-09T07:26:42;3.58;;;0.98;;
25870;SDS011;13689;48.590;7.752;2022-09-09T07:29:09;4.03;;;0.68;;
25870;SDS011;13689;48.590;7.752;2022-09-09T07:31:35;6.22;;;1.35;;
25870;SDS011;13689;48.590;7.752;2022-09-09T07:34:03;4.05;;;0.60;;
25870;SDS011;13689;48.590;7.752;2022-09-09T07:36:30;5.45;;;1.08;;
25870;SDS011;13689;48.590;7.752;2022-09-09T07:38:58;3.78;;;0.88;;
25870;SDS011;13689;48.590;7.752;2022-09-09T07:41:28;2.50;;;0.80;;
25870;SDS011;13689;48.590;7.752;2022-09-09T07:44:06;4.05;;;0.70;;
25870;SDS011;13689;48.590;7.752;2022-09-09T07:46:33;2.67;;;0.90;;
25870;SDS011;13689;48.590;7.752;2022-09-09T07:48:59;6.72;;;1.00;;
25870;SDS011;13689;48.590;7.752;2022-09-09T07:51:27;5.80;;;0.77;;
25870;SDS011;13689;48.590;7.752;2022-09-09T07:53:56;4.13;;;0.82;;
25870;SDS011;13689;48.590;7.752;2022-09-09T07:56:23;3.67;;;1.00;;
25870;SDS011;13689;48.590;7.752;2022-09-09T07:58:50;4.60;;;0.75;;
25870;SDS011;13689;48.590;7.752;2022-09-09T08:01:20;8.35;;;0.90;;
25870;SDS011;13689;48.590;7.752;2022-09-09T08:03:52;5.85;;;0.90;;
25870;SDS011;13689;48.590;7.752;2022-09-09T08:06:20;5.60;;;0.82;;
25870;SDS011;13689;48.590;7.752;2022-09-09T08:08:49;4.47;;;0.98;;
25870;SDS011;13689;48.590;7.752;2022-09-09T08:11:15;4.15;;;1.00;;
25870;SDS011;13689;48.590;7.752;2022-09-09T08:13:42;6.20;;;0.90;;
25870;SDS011;13689;48.590;7.752;2022-09-09T08:16:10;6.63;;;0.80;;
25870;SDS011;13689;48.590;7.752;2022-09-09T08:18:40;5.70;;;0.65;;
25870;SDS011;13689;48.590;7.752;2022-09-09T08:23:33;2.50;;;0.52;;
25870;SDS011;13689;48.590;7.752;2022-09-09T08:28:40;2.15;;;0.75;;
25870;SDS011;13689;48.590;7.752;2022-09-09T08:31:10;4.80;;;0.80;;
25870;SDS011;13689;48.590;7.752;2022-09-09T08:33:38;12.30;;;0.88;;
25870;SDS011;13689;48.590;7.752;2022-09-09T08:36:05;7.32;;;0.65;;
25870;SDS011;13689;48.590;7.752;2022-09-09T08:38:32;4.07;;;0.70;;
25870;SDS011;13689;48.590;7.752;2022-09-09T08:41:17;7.22;;;1.00;;
25870;SDS011;13689;48.590;7.752;2022-09-09T08:46:39;2.85;;;0.85;;
25870;SDS011;13689;48.590;7.752;2022-09-09T08:52:18;4.45;;;0.90;;
25870;SDS011;13689;48.590;7.752;2022-09-09T08:54:50;3.28;;;0.95;;
25870;SDS011;13689;48.590;7.752;2022-09-09T08:57:20;4.93;;;0.70;;
25870;SDS011;13689;48.590;7.752;2022-09-09T08:59:51;5.43;;;0.70;;
25870;SDS011;13689;48.590;7.752;2022-09-09T09:02:38;6.30;;;0.70;;
25870;SDS011;13689;48.590;7.752;2022-09-09T09:07:49;5.18;;;1.48;;
25870;SDS011;13689;48.590;7.752;2022-09-09T09:13:14;4.10;;;1.05;;
25870;SDS011;13689;48.590;7.752;2022-09-09T09:15:47;1.92;;;0.68;;
25870;SDS011;13689;48.590;7.752;2022-09-09T09:18:21;2.90;;;0.55;;
25870;SDS011;13689;48.590;7.752;2022-09-09T09:20:49;4.10;;;0.57;;
25870;SDS011;13689;48.590;7.752;2022-09-09T09:23:22;5.30;;;0.38;;
25870;SDS011;13689;48.590;7.752;2022-09-09T09:25:49;4.05;;;0.57;;
25870;SDS011;13689;48.590;7.752;2022-09-09T09:28:24;1.45;;;0.60;;
25870;SDS011;13689;48.590;7.752;2022-09-09T09:31:11;1.90;;;0.65;;
25870;SDS011;13689;48.590;7.752;2022-09-09T09:33:50;2.88;;;0.60;;
25870;SDS011;13689;48.590;7.752;2022-09-09T09:36:19;3.17;;;0.80;;
25870;SDS011;13689;48.590;7.752;2022-09-09T09:38:54;4.32;;;0.88;;
25870;SDS011;13689;48.590;7.752;2022-09-09T09:44:03;3.05;;;0.75;;
25870;SDS011;13689;48.590;7.752;2022-09-09T09:46:30;6.53;;;0.80;;
25870;SDS011;13689;48.590;7.752;2022-09-09T09:48:57;4.53;;;0.70;;
25870;SDS011;13689;48.590;7.752;2022-09-09T09:51:23;2.28;;;0.55;;
25870;SDS011;13689;48.590;7.752;2022-09-09T09:53:49;1.67;;;0.60;;
25870;SDS011;13689;48.590;7.752;2022-09-09T09:56:17;8.45;;;0.70;;
25870;SDS011;13689;48.590;7.752;2022-09-09T09:58:52;1.58;;;0.52;;
25870;SDS011;13689;48.590;7.752;2022-09-09T10:01:26;4.00;;;1.02;;
25870;SDS011;13689;48.590;7.752;2022-09-09T10:03:57;2.83;;;0.82;;
25870;SDS011;13689;48.590;7.752;2022-09-09T10:06:36;1.58;;;0.40;;
25870;SDS011;13689;48.590;7.752;2022-09-09T10:09:03;1.35;;;0.63;;
25870;SDS011;13689;48.590;7.752;2022-09-09T10:19:31;1.80;;;0.93;;
25870;SDS011;13689;48.590;7.752;2022-09-09T10:22:22;3.50;;;0.98;;
25870;SDS011;13689;48.590;7.752;2022-09-09T10:31:44;2.45;;;0.70;;
25870;SDS011;13689;48.590;7.752;2022-09-09T10:36:39;2.13;;;0.60;;
25870;SDS011;13689;48.590;7.752;2022-09-09T10:42:05;2.55;;;0.70;;
25870;SDS011;13689;48.590;7.752;2022-09-09T10:47:42;2.03;;;0.90;;
25870;SDS011;13689;48.590;7.752;2022-09-09T10:55:48;3.10;;;0.50;;
25870;SDS011;13689;48.590;7.752;2022-09-09T10:58:25;6.75;;;0.75;;
25870;SDS011;13689;48.590;7.752;2022-09-09T11:01:11;2.20;;;0.40;;
25870;SDS011;13689;48.590;7.752;2022-09-09T11:03:44;1.80;;;0.40;;
25870;SDS011;13689;48.590;7.752;2022-09-09T11:06:18;2.85;;;0.57;;
25870;SDS011;13689;48.590;7.752;2022-09-09T11:08:46;2.92;;;0.80;;
25870;SDS011;13689;48.590;7.752;2022-09-09T11:11:21;4.97;;;0.80;;
25870;SDS011;13689;48.590;7.752;2022-09-09T11:14:14;3.17;;;0.55;;
25870;SDS011;13689;48.590;7.752;2022-09-09T11:16:52;3.50;;;0.75;;
25870;SDS011;13689;48.590;7.752;2022-09-09T11:22:02;4.10;;;0.77;;
25870;SDS011;13689;48.590;7.752;2022-09-09T11:24:56;3.25;;;0.32;;
25870;SDS011;13689;48.590;7.752;2022-09-09T11:30:33;1.30;;;0.55;;
25870;SDS011;13689;48.590;7.752;2022-09-09T11:42:06;1.98;;;0.40;;
25870;SDS011;13689;48.590;7.752;2022-09-09T11:44:40;2.17;;;0.45;;
25870;SDS011;13689;48.590;7.752;2022-09-09T11:50:08;1.80;;;0.35;;
25870;SDS011;13689;48.590;7.752;2022-09-09T11:52:41;0.52;;;0.20;;
25870;SDS011;13689;48.590;7.752;2022-09-09T11:58:05;4.82;;;0.82;;
25870;SDS011;13689;48.590;7.752;2022-09-09T12:00:41;1.23;;;0.57;;
25870;SDS011;13689;48.590;7.752;2022-09-09T12:06:41;1.70;;;0.60;;
25870;SDS011;13689;48.590;7.752;2022-09-09T12:09:18;3.78;;;0.40;;
25870;SDS011;13689;48.590;7.752;2022-09-09T12:11:52;0.70;;;0.30;;
25870;SDS011;13689;48.590;7.752;2022-09-09T12:17:17;1.63;;;0.45;;
25870;SDS011;13689;48.590;7.752;2022-09-09T12:19:45;2.10;;;0.40;;
25870;SDS011;13689;48.590;7.752;2022-09-09T12:22:33;0.43;;;0.30;;
25870;SDS011;13689;48.590;7.752;2022-09-09T12:28:09;3.50;;;0.40;;
25870;SDS011;13689;48.590;7.752;2022-09-09T12:33:33;6.90;;;0.70;;
25870;SDS011;13689;48.590;7.752;2022-09-09T12:38:35;2.65;;;0.70;;
25870;SDS011;13689;48.590;7.752;2022-09-09T12:41:03;3.42;;;0.32;;
25870;SDS011;13689;48.590;7.752;2022-09-09T12:43:29;4.70;;;0.50;;
25870;SDS011;13689;48.590;7.752;2022-09-09T12:46:03;2.05;;;0.40;;
25870;SDS011;13689;48.590;7.752;2022-09-09T12:48:35;1.52;;;0.30;;
25870;SDS011;13689;48.590;7.752;2022-09-09T12:51:03;3.50;;;0.38;;
25870;SDS011;13689;48.590;7.752;2022-09-09T12:53:33;1.83;;;0.30;;
25870;SDS011;13689;48.590;7.752;2022-09-09T12:58:28;2.75;;;0.40;;
25870;SDS011;13689;48.590;7.752;2022-09-09T13:00:58;1.30;;;0.40;;
25870;SDS011;13689;48.590;7.752;2022-09-09T13:03:25;1.33;;;0.35;;
25870;SDS011;13689;48.590;7.752;2022-09-09T13:05:52;2.60;;;0.53;;
25870;SDS011;13689;48.590;7.752;2022-09-09T13:08:18;1.15;;;0.30;;
25870;SDS011;13689;48.590;7.752;2022-09-09T13:10:51;2.20;;;0.28;;
25870;SDS011;13689;48.590;7.752;2022-09-09T13:13:27;1.95;;;0.40;;
25870;SDS011;13689;48.590;7.752;2022-09-09T13:16:00;1.00;;;0.30;;
25870;SDS011;13689;48.590;7.752;2022-09-09T13:18:34;1.67;;;0.45;;
25870;SDS011;13689;48.590;7.752;2022-09-09T13:21:01;2.00;;;0.45;;
25870;SDS011;13689;48.590;7.752;2022-09-09T13:23:36;3.55;;;0.30;;
25870;SDS011;13689;48.590;7.752;2022-09-09T13:26:03;2.47;;;0.38;;
25870;SDS011;13689;48.590;7.752;2022-09-09T13:28:48;1.17;;;0.30;;
25870;SDS011;13689;48.590;7.752;2022-09-09T13:31:30;1.83;;;0.50;;
25870;SDS011;13689;48.590;7.752;2022-09-09T13:33:58;2.33;;;0.25;;
25870;SDS011;13689;48.590;7.752;2022-09-09T13:36:31;1.75;;;0.50;;
25870;SDS011;13689;48.590;7.752;2022-09-09T13:38:59;2.78;;;0.30;;
25870;SDS011;13689;48.590;7.752;2022-09-09T13:41:43;2.15;;;0.30;;
25870;SDS011;13689;48.590;7.752;2022-09-09T13:44:43;2.55;;;0.20;;
25870;SDS011;13689;48.590;7.752;2022-09-09T13:49:36;5.40;;;0.40;;
25870;SDS011;13689;48.590;7.752;2022-09-09T13:52:08;1.80;;;0.20;;
25870;SDS011;13689;48.590;7.752;2022-09-09T13:54:36;0.95;;;0.30;;
25870;SDS011;13689;48.590;7.752;2022-09-09T13:57:02;3.15;;;0.40;;
25870;SDS011;13689;48.590;7.752;2022-09-09T13:59:29;0.98;;;0.38;;
25870;SDS011;13689;48.590;7.752;2022-09-09T14:01:55;2.20;;;0.30;;
25870;SDS011;13689;48.590;7.752;2022-09-09T14:04:21;6.28;;;0.40;;
25870;SDS011;13689;48.590;7.752;2022-09-09T14:06:47;7.63;;;0.25;;
25870;SDS011;13689;48.590;7.752;2022-09-09T14:09:14;0.40;;;0.30;;
25870;SDS011;13689;48.590;7.752;2022-09-09T14:11:41;3.30;;;0.43;;
25870;SDS011;13689;48.590;7.752;2022-09-09T14:14:07;2.88;;;0.40;;
25870;SDS011;13689;48.590;7.752;2022-09-09T14:16:34;0.77;;;0.38;;
25870;SDS011;13689;48.590;7.752;2022-09-09T14:18:59;1.20;;;0.30;;
25870;SDS011;13689;48.590;7.752;2022-09-09T14:21:26;8.30;;;0.50;;
25870;SDS011;13689;48.590;7.752;2022-09-09T14:23:52;5.55;;;0.95;;
25870;SDS011;13689;48.590;7.752;2022-09-09T14:26:19;3.58;;;0.50;;
25870;SDS011;13689;48.590;7.752;2022-09-09T14:28:48;3.05;;;0.40;;
25870;SDS011;13689;48.590;7.752;2022-09-09T14:31:15;1.45;;;0.30;;
25870;SDS011;13689;48.590;7.752;2022-09-09T14:33:42;4.18;;;0.40;;
25870;SDS011;13689;48.590;7.752;2022-09-09T14:36:09;2.88;;;0.43;;
25870;SDS011;13689;48.590;7.752;2022-09-09T14:38:36;2.80;;;0.50;;
25870;SDS011;13689;48.590;7.752;2022-09-09T14:41:04;1.73;;;0.50;;
25870;SDS011;13689;48.590;7.752;2022-09-09T14:43:43;4.90;;;0.60;;
25870;SDS011;13689;48.590;7.752;2022-09-09T14:46:14;4.97;;;0.63;;
25870;SDS011;13689;48.590;7.752;2022-09-09T14:48:41;1.58;;;0.45;;
25870;SDS011;13689;48.590;7.752;2022-09-09T14:51:07;1.85;;;0.40;;
25870;SDS011;13689;48.590;7.752;2022-09-09T14:56:07;3.33;;;0.30;;
25870;SDS011;13689;48.590;7.752;2022-09-09T14:58:35;0.60;;;0.30;;
25870;SDS011;13689;48.590;7.752;2022-09-09T15:01:07;0.93;;;0.38;;
25870;SDS011;13689;48.590;7.752;2022-09-09T15:03:38;1.55;;;0.50;;
25870;SDS011;13689;48.590;7.752;2022-09-09T15:06:05;1.60;;;0.50;;
25870;SDS011;13689;48.590;7.752;2022-09-09T15:08:38;1.13;;;0.40;;
25870;SDS011;13689;48.590;7.752;2022-09-09T15:11:06;2.08;;;0.45;;
25870;SDS011;13689;48.590;7.752;2022-09-09T15:13:39;0.73;;;0.47;;
25870;SDS011;13689;48.590;7.752;2022-09-09T15:16:06;1.90;;;0.65;;
25870;SDS011;13689;48.590;7.752;2022-09-09T15:21:00;2.00;;;0.50;;
25870;SDS011;13689;48.590;7.752;2022-09-09T15:23:28;0.85;;;0.43;;
25870;SDS011;13689;48.590;7.752;2022-09-09T15:28:21;2.13;;;0.70;;
25870;SDS011;13689;48.590;7.752;2022-09-09T15:30:51;1.85;;;0.60;;
25870;SDS011;13689;48.590;7.752;2022-09-09T15:33:18;2.20;;;0.73;;
25870;SDS011;13689;48.590;7.752;2022-09-09T15:35:45;1.95;;;0.57;;
25870;SDS011;13689;48.590;7.752;2022-09-09T15:38:11;7.30;;;0.98;;
25870;SDS011;13689;48.590;7.752;2022-09-09T15:40:40;4.45;;;0.65;;
25870;SDS011;13689;48.590;7.752;2022-09-09T15:43:06;3.88;;;0.40;;
25870;SDS011;13689;48.590;7.752;2022-09-09T15:45:34;3.72;;;0.70;;
25870;SDS011;13689;48.590;7.752;2022-09-09T15:48:00;2.90;;;0.50;;
25870;SDS011;13689;48.590;7.752;2022-09-09T15:50:27;1.02;;;0.73;;
25870;SDS011;13689;48.590;7.752;2022-09-09T15:52:53;1.63;;;0.43;;
25870;SDS011;13689;48.590;7.752;2022-09-09T15:55:19;2.35;;;0.50;;
25870;SDS011;13689;48.590;7.752;2022-09-09T15:57:49;4.78;;;1.40;;
25870;SDS011;13689;48.590;7.752;2022-09-09T16:02:43;1.08;;;0.73;;
25870;SDS011;13689;48.590;7.752;2022-09-09T16:05:09;3.25;;;0.50;;
25870;SDS011;13689;48.590;7.752;2022-09-09T16:07:34;3.63;;;0.70;;
25870;SDS011;13689;48.590;7.752;2022-09-09T16:10:03;3.35;;;0.70;;
25870;SDS011;13689;48.590;7.752;2022-09-09T16:12:30;1.02;;;0.32;;
25870;SDS011;13689;48.590;7.752;2022-09-09T16:14:55;1.58;;;0.60;;
25870;SDS011;13689;48.590;7.752;2022-09-09T16:17:21;1.70;;;0.90;;
25870;SDS011;13689;48.590;7.752;2022-09-09T16:19:46;2.00;;;0.60;;
25870;SDS011;13689;48.590;7.752;2022-09-09T16:22:12;0.70;;;0.60;;
25870;SDS011;13689;48.590;7.752;2022-09-09T16:27:05;0.98;;;0.40;;
25870;SDS011;13689;48.590;7.752;2022-09-09T16:29:31;1.42;;;0.40;;
25870;SDS011;13689;48.590;7.752;2022-09-09T16:31:57;3.83;;;0.73;;
25870;SDS011;13689;48.590;7.752;2022-09-09T16:34:25;1.75;;;0.43;;
25870;SDS011;13689;48.590;7.752;2022-09-09T16:36:51;2.05;;;0.65;;
25870;SDS011;13689;48.590;7.752;2022-09-09T16:39:17;2.88;;;1.13;;
25870;SDS011;13689;48.590;7.752;2022-09-09T16:41:46;2.95;;;0.80;;
25870;SDS011;13689;48.590;7.752;2022-09-09T16:44:13;1.33;;;0.40;;
25870;SDS011;13689;48.590;7.752;2022-09-09T16:49:08;1.40;;;0.50;;
25870;SDS011;13689;48.590;7.752;2022-09-09T16:51:39;2.03;;;0.50;;
25870;SDS011;13689;48.590;7.752;2022-09-09T16:54:11;2.25;;;0.70;;
25870;SDS011;13689;48.590;7.752;2022-09-09T16:56:40;4.07;;;0.70;;
25870;SDS011;13689;48.590;7.752;2022-09-09T16:59:12;5.03;;;0.70;;
25870;SDS011;13689;48.590;7.752;2022-09-09T17:02:07;4.70;;;0.70;;
25870;SDS011;13689;48.590;7.752;2022-09-09T17:04:33;1.33;;;0.88;;
25870;SDS011;13689;48.590;7.752;2022-09-09T17:06:58;1.85;;;0.50;;
25870;SDS011;13689;48.590;7.752;2022-09-09T17:09:25;1.42;;;0.50;;
25870;SDS011;13689;48.590;7.752;2022-09-09T17:11:53;4.07;;;0.80;;
25870;SDS011;13689;48.590;7.752;2022-09-09T17:14:21;2.95;;;0.98;;
25870;SDS011;13689;48.590;7.752;2022-09-09T17:16:48;2.15;;;0.65;;
25870;SDS011;13689;48.590;7.752;2022-09-09T17:19:14;2.17;;;0.55;;
25870;SDS011;13689;48.590;7.752;2022-09-09T17:21:41;8.18;;;0.77;;
25870;SDS011;13689;48.590;7.752;2022-09-09T17:24:07;3.70;;;0.60;;
25870;SDS011;13689;48.590;7.752;2022-09-09T17:26:33;2.00;;;0.60;;
25870;SDS011;13689;48.590;7.752;2022-09-09T17:28:59;2.10;;;0.57;;
25870;SDS011;13689;48.590;7.752;2022-09-09T17:31:26;1.52;;;0.55;;
25870;SDS011;13689;48.590;7.752;2022-09-09T17:33:53;3.13;;;0.50;;
25870;SDS011;13689;48.590;7.752;2022-09-09T17:36:21;1.55;;;0.50;;
25870;SDS011;13689;48.590;7.752;2022-09-09T17:38:48;1.23;;;0.47;;
25870;SDS011;13689;48.590;7.752;2022-09-09T17:43:44;2.70;;;0.75;;
25870;SDS011;13689;48.590;7.752;2022-09-09T17:46:12;5.03;;;0.60;;
25870;SDS011;13689;48.590;7.752;2022-09-09T17:48:38;3.75;;;0.70;;